Time;durP1;ratioP1;P1;durP2;ratioP2;P2;SDS_P1;SDS_P2;PMS_P1;PMS_P2;Temp;Humidity;BMP_temperature;BMP_pressure;BME280_temperature;BME280_humidity;BME280_pressure;Samples;Min_cycle;Max_cycle;Signal;HPM_P1;HPM_P2
2023/10/22 00:01:13;;;;;;;3.17;1.30;;;17.50;99.90;;;;;;10478281;28;20459;-35
2023/10/22 00:06:15;;;;;;;4.05;1.30;;;17.10;99.90;;;;;;10470222;28;20044;-38
2023/10/22 00:11:16;;;;;;;3.53;1.30;;;17.00;99.90;;;;;;10472529;28;20152;-34
2023/10/22 00:16:19;;;;;;;5.53;1.50;;;17.40;99.90;;;;;;10470117;28;20048;-37
2023/10/22 00:21:22;;;;;;;3.67;1.40;;;16.30;99.90;;;;;;10480205;28;20044;-34
2023/10/22 00:26:24;;;;;;;3.33;1.17;;;16.20;99.90;;;;;;10468980;28;20431;-37
2023/10/22 00:31:27;;;;;;;5.80;1.33;;;16.20;99.90;;;;;;10468834;28;20046;-39
2023/10/22 00:36:29;;;;;;;2.95;1.20;;;15.90;99.90;;;;;;10468110;28;20053;-30
2023/10/22 00:41:31;;;;;;;2.87;0.90;;;15.70;99.90;;;;;;10461966;28;20068;-35
2023/10/22 00:46:34;;;;;;;2.87;1.30;;;15.80;99.90;;;;;;10468580;28;20138;-32
2023/10/22 00:51:36;;;;;;;8.23;1.17;;;16.40;99.90;;;;;;10466871;28;20390;-33
2023/10/22 00:56:39;;;;;;;5.00;1.40;;;15.90;99.90;;;;;;10467763;28;20064;-35
2023/10/22 01:01:43;;;;;;;;;;;16.10;99.90;;;;;;10477523;28;20156;-33
2023/10/22 01:06:46;;;;;;;4.72;1.45;;;16.60;99.90;;;;;;10465243;28;19921;-36
2023/10/22 01:12:00;;;;;;;;;;;16.50;99.90;;;;;;10458241;28;20048;-37
2023/10/22 01:17:03;;;;;;;4.85;1.20;;;17.30;99.90;;;;;;10463459;28;19926;-38
2023/10/22 01:22:05;;;;;;;6.70;1.30;;;15.40;99.90;;;;;;10471824;28;20079;-37
2023/10/22 01:27:08;;;;;;;10.20;1.73;;;15.10;99.90;;;;;;10477196;28;20067;-39
2023/10/22 01:32:12;;;;;;;17.15;1.45;;;15.00;99.90;;;;;;10464506;28;20103;-36
2023/10/22 01:37:13;;;;;;;6.55;0.85;;;14.60;99.90;;;;;;10477449;28;20040;-32
2023/10/22 01:42:16;;;;;;;8.02;1.95;;;14.40;99.90;;;;;;10476801;28;23747;-34
2023/10/22 01:47:18;;;;;;;10.55;1.70;;;14.20;99.90;;;;;;10467137;28;20140;-34
2023/10/22 01:52:21;;;;;;;11.70;1.90;;;13.80;99.90;;;;;;10474190;28;20044;-31
2023/10/22 01:57:24;;;;;;;;;;;13.60;99.90;;;;;;10462809;28;20061;-33
2023/10/22 02:02:26;;;;;;;8.18;1.20;;;14.00;99.90;;;;;;10470977;28;19953;-35
2023/10/22 02:07:31;;;;;;;5.43;2.67;;;14.50;99.90;;;;;;10468899;28;20056;-32
2023/10/22 02:12:34;;;;;;;6.85;2.33;;;14.10;99.90;;;;;;10461624;28;20712;-29
2023/10/22 02:17:37;;;;;;;12.02;3.65;;;13.90;99.90;;;;;;10470086;28;20139;-43
2023/10/22 02:22:39;;;;;;;5.90;1.77;;;13.60;99.90;;;;;;10464287;28;20044;-32
2023/10/22 02:27:42;;;;;;;6.15;1.48;;;13.60;99.90;;;;;;10475548;28;20150;-43
2023/10/22 02:32:44;;;;;;;6.45;1.83;;;13.70;99.90;;;;;;10473736;28;20144;-32
2023/10/22 02:37:47;;;;;;;9.13;2.90;;;13.70;99.90;;;;;;10461763;28;20582;-32
2023/10/22 02:42:50;;;;;;;;;;;13.80;99.90;;;;;;10476201;28;20037;-35
2023/10/22 02:47:52;;;;;;;3.20;1.20;;;13.60;99.90;;;;;;10465514;28;20427;-32
2023/10/22 02:52:55;;;;;;;5.65;1.20;;;13.60;99.90;;;;;;10459737;28;20090;-32
2023/10/22 03:15:43;;;;;;;7.22;1.35;;;14.60;99.90;;;;;;10416454;27;20661;-35
2023/10/22 03:20:44;;;;;;;3.30;1.02;;;13.90;99.90;;;;;;10417275;27;20073;-42
2023/10/22 03:25:46;;;;;;;3.90;0.70;;;14.30;99.90;;;;;;10426750;27;20045;-35
2023/10/22 03:30:49;;;;;;;3.58;0.80;;;14.00;99.90;;;;;;10427073;27;20128;-36
2023/10/22 03:35:52;;;;;;;14.05;1.55;;;14.80;99.90;;;;;;10424261;27;20119;-39
2023/10/22 03:40:59;;;;;;;10.35;1.48;;;14.40;99.90;;;;;;10436579;27;20090;-32
2023/10/22 03:46:02;;;;;;;3.50;0.98;;;14.00;99.90;;;;;;10424922;27;20045;-34
2023/10/22 03:51:04;;;;;;;2.75;1.20;;;14.10;99.90;;;;;;10421036;27;20041;-32
2023/10/22 03:56:07;;;;;;;3.40;0.95;;;14.00;99.90;;;;;;10444125;27;20050;-36
2023/10/22 04:01:10;;;;;;;5.32;0.82;;;13.90;99.90;;;;;;10428277;27;20044;-32
2023/10/22 04:06:12;;;;;;;4.07;1.42;;;14.30;99.90;;;;;;10425797;27;20037;-33
2023/10/22 04:11:13;;;;;;;4.97;0.88;;;14.00;99.90;;;;;;10437478;27;20589;-38
2023/10/22 04:16:17;;;;;;;1.83;0.90;;;14.00;99.90;;;;;;10420984;27;20106;-31
2023/10/22 04:21:19;;;;;;;7.38;1.20;;;14.50;99.90;;;;;;10420195;27;20564;-35
2023/10/22 04:26:22;;;;;;;5.00;0.82;;;14.20;99.90;;;;;;10414545;27;20118;-33
2023/10/22 04:31:25;;;;;;;4.47;0.77;;;14.00;99.90;;;;;;10409030;27;20053;-37
2023/10/22 04:36:27;;;;;;;2.08;0.70;;;14.50;99.90;;;;;;10413057;27;20088;-36
2023/10/22 04:41:29;;;;;;;4.40;0.70;;;14.60;99.90;;;;;;10412063;27;20458;-32
2023/10/22 04:46:32;;;;;;;4.97;0.52;;;14.00;99.90;;;;;;10404024;27;20097;-46
2023/10/22 04:51:36;;;;;;;3.75;0.75;;;14.30;99.90;;;;;;10412803;27;20091;-31
2023/10/22 04:56:38;;;;;;;6.15;0.85;;;14.20;99.90;;;;;;10400738;27;20041;-31
2023/10/22 05:01:41;;;;;;;4.63;0.82;;;14.50;99.90;;;;;;10407867;27;20136;-32
2023/10/22 05:06:43;;;;;;;4.43;0.68;;;15.00;99.90;;;;;;10402211;27;20127;-35
2023/10/22 05:11:44;;;;;;;2.58;0.70;;;14.10;99.90;;;;;;10406487;27;20213;-34
2023/10/22 05:16:48;;;;;;;5.53;1.55;;;14.90;99.90;;;;;;10410267;27;20069;-38
2023/10/22 05:21:49;;;;;;;0.75;0.60;;;14.50;99.90;;;;;;10408481;27;20171;-31
2023/10/22 05:26:52;;;;;;;1.75;0.85;;;15.50;99.90;;;;;;10396070;27;20598;-41
2023/10/22 05:31:55;;;;;;;5.55;0.93;;;14.90;99.90;;;;;;10411122;27;20045;-36
2023/10/22 05:36:57;;;;;;;8.80;1.20;;;14.40;99.90;;;;;;10404681;27;20138;-33
2023/10/22 05:41:59;;;;;;;2.45;0.55;;;14.10;99.90;;;;;;10405119;27;20045;-32
2023/10/22 05:47:02;;;;;;;3.00;0.80;;;14.80;99.90;;;;;;10403347;27;20041;-32
2023/10/22 05:52:04;;;;;;;2.47;1.00;;;14.50;99.90;;;;;;10400518;27;20129;-36
2023/10/22 05:57:06;;;;;;;3.07;1.00;;;14.80;99.90;;;;;;10400655;27;20049;-36
2023/10/22 06:02:09;;;;;;;1.77;0.55;;;14.20;99.90;;;;;;10414560;27;20134;-31
2023/10/22 06:07:11;;;;;;;2.08;0.70;;;14.20;99.90;;;;;;10398573;27;20049;-41
2023/10/22 06:12:14;;;;;;;;;;;15.10;99.90;;;;;;10390705;27;20068;-37
2023/10/22 06:17:17;;;;;;;4.80;0.88;;;14.90;99.90;;;;;;10398663;27;20016;-34
2023/10/22 06:22:19;;;;;;;4.18;0.80;;;15.30;99.90;;;;;;10394546;27;20102;-31
2023/10/22 06:27:21;;;;;;;3.40;0.88;;;14.40;99.90;;;;;;10407276;27;20041;-41
2023/10/22 06:32:24;;;;;;;3.10;0.90;;;14.80;99.90;;;;;;10395876;27;20053;-37
2023/10/22 06:37:26;;;;;;;3.67;1.25;;;14.90;99.90;;;;;;10418386;27;20041;-39
2023/10/22 06:42:29;;;;;;;2.95;0.60;;;15.40;99.90;;;;;;10398074;27;20055;-35
2023/10/22 06:47:35;;;;;;;1.92;0.85;;;16.70;99.90;;;;;;10395215;28;20146;-33
2023/10/22 06:52:37;;;;;;;1.67;0.80;;;17.40;99.90;;;;;;10407310;27;20043;-42
2023/10/22 06:57:39;;;;;;;1.27;0.88;;;18.00;99.60;;;;;;10394844;27;20183;-34
2023/10/22 07:02:43;;;;;;;4.30;1.30;;;18.20;96.90;;;;;;10392386;28;20085;-40
2023/10/22 07:07:45;;;;;;;0.93;0.52;;;17.00;93.30;;;;;;10399043;28;20034;-38
2023/10/22 07:12:47;;;;;;;3.57;0.70;;;17.20;99.90;;;;;;10396499;28;20049;-34
2023/10/22 07:17:50;;;;;;;3.10;1.13;;;16.60;95.50;;;;;;10398375;28;20113;-31
2023/10/22 07:22:52;;;;;;;4.93;0.98;;;15.80;99.90;;;;;;10402215;28;20136;-36
2023/10/22 07:27:54;;;;;;;6.63;1.40;;;14.70;99.90;;;;;;10398809;28;20559;-39
2023/10/22 07:32:58;;;;;;;4.90;1.27;;;14.00;99.90;;;;;;10400059;28;20502;-44
2023/10/22 07:37:59;;;;;;;4.72;1.35;;;13.70;99.90;;;;;;10403894;28;20041;-33
2023/10/22 07:43:01;;;;;;;5.70;1.35;;;14.00;99.90;;;;;;10391920;28;20045;-37
2023/10/22 07:48:05;;;;;;;5.68;2.45;;;15.60;99.90;;;;;;10397480;28;20128;-32
2023/10/22 07:53:06;;;;;;;3.40;1.63;;;17.50;98.40;;;;;;10402430;28;20114;-38
2023/10/22 07:58:08;;;;;;;10.03;2.07;;;15.30;99.90;;;;;;10400897;28;20041;-32
2023/10/22 08:03:11;;;;;;;2.73;1.17;;;15.10;99.90;;;;;;10407212;27;20081;-35
2023/10/22 08:08:13;;;;;;;9.45;3.08;;;15.10;99.90;;;;;;10408749;27;20073;-34
2023/10/22 08:13:15;;;;;;;3.72;1.60;;;14.00;99.90;;;;;;10402519;27;20189;-31
2023/10/22 08:18:18;;;;;;;4.27;2.17;;;14.30;99.90;;;;;;10413970;27;20037;-39
2023/10/22 08:23:20;;;;;;;2.15;0.95;;;14.70;99.90;;;;;;10410662;27;20457;-32
2023/10/22 08:28:23;;;;;;;3.25;1.13;;;15.90;99.90;;;;;;10402763;27;20529;-47
2023/10/22 08:33:27;;;;;;;1.85;1.17;;;16.20;99.90;;;;;;10402576;28;20073;-36
2023/10/22 08:38:28;;;;;;;4.03;1.50;;;16.50;99.90;;;;;;10416611;27;20137;-34
2023/10/22 08:43:32;;;;;;;4.23;1.00;;;16.50;99.90;;;;;;10414595;27;20061;-36
2023/10/22 08:48:36;;;;;;;1.98;0.88;;;16.90;99.90;;;;;;10401153;27;20048;-32
2023/10/22 08:53:38;;;;;;;1.65;0.75;;;17.30;99.90;;;;;;10410372;27;20178;-39
2023/10/22 08:58:40;;;;;;;1.23;1.10;;;17.20;99.90;;;;;;10401615;27;20049;-37
2023/10/22 09:03:44;;;;;;;2.13;0.82;;;17.10;99.90;;;;;;10397923;27;20057;-36
2023/10/22 09:08:46;;;;;;;0.90;0.50;;;16.70;99.90;;;;;;10407444;27;20057;-39
2023/10/22 09:13:48;;;;;;;1.70;0.98;;;18.10;99.90;;;;;;10401340;28;20050;-44
2023/10/22 09:18:51;;;;;;;;;;;17.80;99.90;;;;;;10395829;28;20072;-33
2023/10/22 09:24:06;;;;;;;1.92;0.80;;;17.20;99.90;;;;;;10393816;27;20051;-42
2023/10/22 09:29:08;;;;;;;3.63;0.93;;;16.90;99.90;;;;;;10410301;28;20082;-38
2023/10/22 09:34:26;;;;;;;3.23;0.80;;;16.40;99.90;;;;;;10402360;27;20145;-42
2023/10/22 09:39:36;;;;;;;3.63;1.13;;;16.90;99.90;;;;;;10396695;27;20571;-32
2023/10/22 09:44:38;;;;;;;6.80;1.17;;;17.00;99.90;;;;;;10407433;27;20041;-34
2023/10/22 09:49:45;;;;;;;5.72;1.05;;;15.80;99.90;;;;;;10397454;27;20049;-38
2023/10/22 09:54:50;;;;;;;5.28;1.13;;;16.40;99.90;;;;;;10415088;27;20475;-35
2023/10/22 09:59:53;;;;;;;2.65;1.40;;;16.20;99.90;;;;;;10394189;27;20125;-33
2023/10/22 10:04:57;;;;;;;;;;;16.40;99.90;;;;;;10393266;28;20157;-37
2023/10/22 10:10:00;;;;;;;4.05;0.93;;;16.80;99.90;;;;;;10400103;27;20385;-33
2023/10/22 10:15:02;;;;;;;2.22;0.90;;;16.30;99.90;;;;;;10386871;27;20061;-33
2023/10/22 10:20:27;;;;;;;1.53;0.60;;;15.70;99.90;;;;;;10401916;28;20144;-38
2023/10/22 10:25:29;;;;;;;4.43;1.45;;;16.60;99.90;;;;;;10391709;28;20041;-32
2023/10/22 10:30:31;;;;;;;1.85;1.00;;;17.00;99.90;;;;;;10393883;28;20060;-36
2023/10/22 10:35:44;;;;;;;3.92;1.05;;;16.20;99.90;;;;;;10402048;27;20231;-39
2023/10/22 10:40:47;;;;;;;1.38;0.82;;;16.00;99.90;;;;;;10392871;28;20086;-38
2023/10/22 10:46:27;;;;;;;3.03;0.95;;;15.70;99.90;;;;;;10401794;28;20148;-33
2023/10/22 10:51:30;;;;;;;3.05;1.23;;;15.40;99.90;;;;;;10396520;27;20419;-33
2023/10/22 10:56:46;;;;;;;4.22;0.73;;;15.50;99.90;;;;;;10389018;27;20164;-32
2023/10/22 11:01:58;;;;;;;5.88;1.08;;;15.30;99.90;;;;;;10388062;28;20064;-39
2023/10/22 11:07:02;;;;;;;8.15;1.20;;;15.10;99.90;;;;;;10396948;27;20041;-32
2023/10/22 11:12:05;;;;;;;9.32;2.10;;;14.90;99.90;;;;;;10404051;28;20088;-33
2023/10/22 11:17:07;;;;;;;5.43;0.77;;;15.00;99.90;;;;;;10388255;28;20534;-38
2023/10/22 11:22:12;;;;;;;7.35;0.98;;;15.10;99.90;;;;;;10385800;28;20041;-31
2023/10/22 11:27:15;;;;;;;6.82;0.80;;;14.90;99.90;;;;;;10394091;28;20048;-34
2023/10/22 11:32:18;;;;;;;4.20;0.60;;;15.20;99.90;;;;;;10389570;28;20057;-40
2023/10/22 11:37:28;;;;;;;3.42;0.68;;;15.00;99.90;;;;;;10403027;28;20398;-39
2023/10/22 11:42:33;;;;;;;3.45;0.55;;;14.90;99.90;;;;;;10394596;27;20042;-41
2023/10/22 11:47:35;;;;;;;0.88;0.40;;;14.90;99.90;;;;;;10399001;27;20037;-34
2023/10/22 11:52:51;;;;;;;10.73;1.13;;;15.80;99.90;;;;;;10394404;27;20120;-38
2023/10/22 11:57:53;;;;;;;3.63;0.70;;;15.30;99.90;;;;;;10397855;27;20097;-36
2023/10/22 12:02:55;;;;;;;2.30;0.93;;;15.50;99.90;;;;;;10396952;27;20057;-49
2023/10/22 12:07:58;;;;;;;1.40;0.35;;;15.90;99.90;;;;;;10394184;28;20553;-38
2023/10/22 12:13:01;;;;;;;3.47;0.65;;;16.10;99.10;;;;;;10403058;27;20084;-41
2023/10/22 12:18:03;;;;;;;1.55;0.63;;;16.20;93.10;;;;;;10393819;27;20041;-35
2023/10/22 12:23:10;;;;;;;4.00;0.50;;;15.80;99.90;;;;;;10401813;27;20057;-33
2023/10/22 12:28:12;;;;;;;1.50;0.40;;;15.90;94.60;;;;;;10399483;27;20140;-38
2023/10/22 12:33:14;;;;;;;4.10;0.63;;;15.80;96.90;;;;;;10398078;28;20045;-39
2023/10/22 12:38:17;;;;;;;2.83;0.50;;;16.00;93.50;;;;;;10400784;27;20056;-37
2023/10/22 12:43:19;;;;;;;2.10;0.60;;;16.20;94.70;;;;;;10401261;27;20148;-32
2023/10/22 12:48:22;;;;;;;2.75;0.70;;;16.70;96.30;;;;;;10402851;27;20065;-34
2023/10/22 12:53:25;;;;;;;2.65;0.45;;;17.20;92.90;;;;;;10392409;28;20037;-32
2023/10/22 12:58:27;;;;;;;2.65;1.15;;;17.30;91.80;;;;;;10402126;27;20041;-35
2023/10/22 13:03:29;;;;;;;5.57;1.03;;;16.60;92.10;;;;;;10405132;27;20042;-33
2023/10/22 13:08:32;;;;;;;3.90;0.70;;;17.30;93.60;;;;;;10397877;28;20178;-35
2023/10/22 13:13:34;;;;;;;0.88;0.50;;;17.20;90.30;;;;;;10406085;27;22578;-39
2023/10/22 13:18:36;;;;;;;4.80;0.63;;;17.10;87.20;;;;;;10405267;27;20570;-38
2023/10/22 13:23:39;;;;;;;6.43;0.70;;;17.40;94.30;;;;;;10406787;27;20044;-33
2023/10/22 13:28:41;;;;;;;7.45;0.95;;;17.70;94.80;;;;;;10401605;28;20440;-37
2023/10/22 13:33:43;;;;;;;2.87;0.57;;;17.20;89.60;;;;;;10409595;27;20066;-43
2023/10/22 13:38:46;;;;;;;5.43;1.30;;;18.20;93.20;;;;;;10399694;28;20129;-40
2023/10/22 13:43:47;;;;;;;1.50;0.63;;;18.10;83.70;;;;;;10402400;27;20449;-41
2023/10/22 13:48:49;;;;;;;0.40;0.33;;;18.40;78.10;;;;;;10403996;27;20065;-33
2023/10/22 13:53:54;;;;;;;1.98;0.70;;;18.80;90.30;;;;;;10388395;27;20081;-36
2023/10/22 13:58:55;;;;;;;2.60;0.50;;;18.50;80.40;;;;;;10393052;27;20049;-37
2023/10/22 14:03:57;;;;;;;1.57;0.57;;;18.20;91.10;;;;;;10401683;27;20147;-33
2023/10/22 14:09:00;;;;;;;2.37;1.10;;;18.20;94.10;;;;;;10400317;27;20090;-33
2023/10/22 14:14:02;;;;;;;3.88;0.70;;;18.20;81.60;;;;;;10404118;27;20121;-38
2023/10/22 14:19:04;;;;;;;2.92;0.55;;;18.70;88.30;;;;;;10398175;27;20045;-32
2023/10/22 14:24:09;;;;;;;1.55;0.47;;;18.90;75.30;;;;;;10407133;27;20601;-38
2023/10/22 14:29:11;;;;;;;7.13;0.63;;;19.60;79.70;;;;;;10401028;27;20055;-34
2023/10/22 14:34:17;;;;;;;2.28;0.65;;;19.50;76.80;;;;;;10402497;27;20497;-33
2023/10/22 14:39:23;;;;;;;1.02;0.40;;;19.10;73.70;;;;;;10402026;27;20056;-38
2023/10/22 14:44:25;;;;;;;4.00;0.40;;;19.90;76.60;;;;;;10389847;27;20140;-38
2023/10/22 14:49:27;;;;;;;1.83;0.38;;;19.30;90.70;;;;;;10400389;27;20046;-42
2023/10/22 14:54:30;;;;;;;2.58;0.57;;;19.50;80.70;;;;;;10387207;27;20072;-33
2023/10/22 14:59:33;;;;;;;2.72;0.50;;;19.90;76.20;;;;;;10384091;28;20039;-33
2023/10/22 15:04:36;;;;;;;0.52;0.40;;;19.90;78.50;;;;;;10393315;28;20111;-31
2023/10/22 15:09:39;;;;;;;2.45;0.50;;;20.20;83.40;;;;;;10389907;28;20049;-34
2023/10/22 15:14:41;;;;;;;3.55;0.60;;;20.50;69.40;;;;;;10397033;28;20084;-39
2023/10/22 15:19:42;;;;;;;1.33;0.35;;;20.00;71.80;;;;;;10391728;28;20079;-32
2023/10/22 15:24:46;;;;;;;1.95;0.38;;;19.70;75.60;;;;;;10417523;28;20041;-35
2023/10/22 15:29:47;;;;;;;1.30;0.50;;;19.80;86.40;;;;;;10396310;28;20041;-38
2023/10/22 15:34:49;;;;;;;0.63;0.30;;;19.90;69.10;;;;;;10388940;28;20132;-37
2023/10/22 15:39:53;;;;;;;3.85;0.50;;;20.40;85.10;;;;;;10393320;28;20049;-37
2023/10/22 15:44:55;;;;;;;3.17;0.70;;;19.50;70.40;;;;;;10386551;28;20046;-38
2023/10/22 15:49:57;;;;;;;7.20;2.25;;;19.30;69.00;;;;;;10383881;28;20049;-42
2023/10/22 15:55:00;;;;;;;2.67;0.80;;;19.80;72.70;;;;;;10394843;28;20045;-34
2023/10/22 16:00:02;;;;;;;2.33;0.93;;;19.60;88.00;;;;;;10395285;28;20512;-39
2023/10/22 16:05:05;;;;;;;2.03;1.00;;;19.70;92.10;;;;;;10385923;28;20550;-30
2023/10/22 16:10:10;;;;;;;3.47;0.88;;;20.30;83.20;;;;;;10386928;28;20041;-33
2023/10/22 16:15:15;;;;;;;2.83;1.00;;;20.30;71.90;;;;;;10394736;28;20057;-34
2023/10/22 16:20:16;;;;;;;3.67;0.93;;;20.20;90.50;;;;;;10395424;28;20144;-38
2023/10/22 16:25:20;;;;;;;5.88;2.40;;;18.80;76.30;;;;;;10399646;27;20079;-34
2023/10/22 16:30:23;;;;;;;5.18;1.40;;;18.80;86.50;;;;;;10412204;27;20401;-36
2023/10/22 16:35:25;;;;;;;5.80;1.30;;;19.80;92.30;;;;;;10405995;27;21602;-35
2023/10/22 16:40:28;;;;;;;2.13;0.98;;;19.40;76.30;;;;;;10402620;27;20237;-37
2023/10/22 16:45:29;;;;;;;1.85;1.08;;;18.80;95.40;;;;;;10404490;27;20537;-35
2023/10/22 16:50:32;;;;;;;6.30;1.35;;;20.00;93.80;;;;;;10396582;27;20052;-40
2023/10/22 16:55:35;;;;;;;1.35;0.90;;;20.60;91.70;;;;;;10408594;27;20039;-36
2023/10/22 17:00:37;;;;;;;2.88;1.02;;;20.10;91.30;;;;;;10398883;27;20136;-47
2023/10/22 17:05:40;;;;;;;1.30;0.80;;;21.00;89.90;;;;;;10405271;27;20047;-32
2023/10/22 17:10:43;;;;;;;3.00;0.98;;;21.70;85.70;;;;;;10408594;27;20490;-33
2023/10/22 17:15:45;;;;;;;5.10;1.17;;;21.70;85.60;;;;;;10405803;27;20098;-39
2023/10/22 17:20:47;;;;;;;2.65;0.90;;;21.20;90.10;;;;;;10406290;27;20048;-35
2023/10/22 17:25:52;;;;;;;1.75;1.05;;;19.90;91.60;;;;;;10410641;27;20456;-34
2023/10/22 17:30:55;;;;;;;5.18;1.80;;;19.30;77.00;;;;;;10403677;27;20178;-33
2023/10/22 17:35:58;;;;;;;3.67;1.33;;;19.10;91.00;;;;;;10411324;27;20140;-37
2023/10/22 17:41:01;;;;;;;4.30;1.88;;;20.20;94.00;;;;;;10397194;27;20054;-32
2023/10/22 17:46:03;;;;;;;1.70;1.13;;;20.10;91.40;;;;;;10413795;27;20045;-33
2023/10/22 17:51:05;;;;;;;2.42;1.20;;;20.10;94.20;;;;;;10395660;28;20082;-37
2023/10/22 17:56:10;;;;;;;4.30;2.20;;;21.00;91.10;;;;;;10391812;27;20183;-41
2023/10/22 18:01:12;;;;;;;2.78;1.60;;;20.80;90.20;;;;;;10392988;27;20067;-34
2023/10/22 18:06:13;;;;;;;3.63;1.67;;;20.40;92.10;;;;;;10392192;27;20154;-37
2023/10/22 18:11:21;;;;;;;2.80;1.63;;;21.00;90.80;;;;;;10382906;27;20045;-34
2023/10/22 18:16:23;;;;;;;2.80;1.67;;;21.40;87.70;;;;;;10395661;27;20041;-41
2023/10/22 18:21:25;;;;;;;3.40;1.60;;;21.60;86.20;;;;;;10393182;27;20121;-36
2023/10/22 18:26:29;;;;;;;2.92;1.25;;;21.60;85.70;;;;;;10389029;27;20481;-36
2023/10/22 18:31:31;;;;;;;3.42;1.65;;;21.60;85.40;;;;;;10384356;27;20045;-34
2023/10/22 18:36:33;;;;;;;3.15;1.35;;;21.60;85.00;;;;;;10390100;27;20056;-33
2023/10/22 18:41:36;;;;;;;6.43;1.60;;;21.70;84.90;;;;;;10392597;27;20090;-34
2023/10/22 18:46:38;;;;;;;4.53;1.70;;;21.60;84.80;;;;;;10378333;28;20046;-37
2023/10/22 18:51:40;;;;;;;2.78;1.70;;;21.70;84.70;;;;;;10378911;27;20705;-38
2023/10/22 18:56:43;;;;;;;2.97;1.73;;;21.60;84.80;;;;;;10378877;28;20077;-37
2023/10/22 19:01:45;;;;;;;5.70;2.38;;;21.60;84.90;;;;;;10378535;28;20130;-36
2023/10/22 19:06:47;;;;;;;7.30;2.53;;;21.60;84.60;;;;;;10393572;28;20058;-36
2023/10/22 19:11:51;;;;;;;5.45;2.53;;;21.50;84.50;;;;;;10382665;27;20048;-36
2023/10/22 19:16:54;;;;;;;6.22;3.00;;;21.50;85.00;;;;;;10381229;28;20049;-36
2023/10/22 19:21:55;;;;;;;6.43;3.53;;;21.50;84.40;;;;;;10384905;28;20077;-37
2023/10/22 19:26:59;;;;;;;5.32;3.15;;;21.50;84.20;;;;;;10377879;28;20049;-47
2023/10/22 19:32:01;;;;;;;12.02;3.78;;;21.50;84.10;;;;;;10386493;28;20064;-32
2023/10/22 19:37:03;;;;;;;7.57;3.83;;;21.40;84.10;;;;;;10384672;28;20056;-42
2023/10/22 19:42:06;;;;;;;10.68;4.25;;;21.40;84.00;;;;;;10383424;28;20616;-30
2023/10/22 19:47:08;;;;;;;8.05;4.13;;;21.40;83.90;;;;;;10380342;28;20061;-39
2023/10/22 19:52:10;;;;;;;9.25;4.65;;;21.40;83.90;;;;;;10385299;28;20116;-40
2023/10/22 19:57:13;;;;;;;8.60;4.80;;;21.40;83.90;;;;;;10389648;27;20068;-42
2023/10/22 20:02:15;;;;;;;6.25;4.32;;;21.30;83.70;;;;;;10388233;28;20037;-38
2023/10/22 20:07:17;;;;;;;10.82;4.80;;;21.30;83.70;;;;;;10393103;27;20094;-41
2023/10/22 20:12:20;;;;;;;9.93;4.78;;;21.30;83.70;;;;;;10390051;27;20702;-39
2023/10/22 20:17:22;;;;;;;5.00;3.92;;;21.20;83.60;;;;;;10388806;27;20038;-40
2023/10/22 20:22:24;;;;;;;13.52;5.32;;;21.20;83.50;;;;;;10400914;27;20455;-34
2023/10/22 20:27:27;;;;;;;8.98;4.88;;;21.20;83.60;;;;;;10409828;27;20041;-33
2023/10/22 20:32:29;;;;;;;11.80;5.50;;;21.20;83.50;;;;;;10385896;27;20033;-41
2023/10/22 20:37:31;;;;;;;7.43;4.50;;;21.20;83.50;;;;;;10396880;27;20137;-32
2023/10/22 20:42:34;;;;;;;13.23;4.90;;;21.10;83.50;;;;;;10396764;27;20041;-33
2023/10/22 20:47:36;;;;;;;11.50;5.03;;;21.10;83.30;;;;;;10387638;27;20084;-37
2023/10/22 20:52:38;;;;;;;7.75;4.68;;;21.10;83.30;;;;;;10398604;27;20049;-37
2023/10/22 20:57:41;;;;;;;7.15;4.80;;;21.10;83.10;;;;;;10390257;27;20045;-41
2023/10/22 21:02:43;;;;;;;8.95;5.13;;;21.10;83.00;;;;;;10387703;27;20109;-32
2023/10/22 21:07:44;;;;;;;9.27;5.75;;;21.00;83.10;;;;;;10388633;27;20030;-43
2023/10/22 21:12:48;;;;;;;7.85;5.25;;;21.00;83.10;;;;;;10403365;27;20132;-38
2023/10/22 21:17:50;;;;;;;7.07;4.72;;;21.00;83.00;;;;;;10395585;27;24209;-35
2023/10/22 21:22:52;;;;;;;9.88;4.82;;;21.00;83.00;;;;;;10395235;27;20054;-34
2023/10/22 21:27:55;;;;;;;9.10;4.78;;;21.00;82.90;;;;;;10402369;27;20037;-39
2023/10/22 21:32:57;;;;;;;8.25;4.93;;;21.00;82.90;;;;;;10388822;28;20087;-39
2023/10/22 21:37:59;;;;;;;9.23;5.05;;;20.90;82.80;;;;;;10400024;27;20051;-33
2023/10/22 21:43:02;;;;;;;9.10;5.20;;;20.90;82.60;;;;;;10394535;27;20049;-46
2023/10/22 21:48:04;;;;;;;14.18;5.05;;;20.90;82.60;;;;;;10376976;28;20129;-35
2023/10/22 21:53:06;;;;;;;7.13;4.50;;;20.80;82.60;;;;;;10394392;27;20499;-32
2023/10/22 21:58:09;;;;;;;8.85;4.78;;;20.80;82.60;;;;;;10396159;27;20106;-32
2023/10/22 22:03:12;;;;;;;8.25;4.50;;;20.80;82.60;;;;;;10400332;27;20045;-36
2023/10/22 22:08:13;;;;;;;5.32;3.70;;;20.80;82.40;;;;;;10392498;27;20424;-35
2023/10/22 22:13:17;;;;;;;9.23;4.65;;;20.80;82.50;;;;;;10391506;28;20077;-32
2023/10/22 22:18:19;;;;;;;11.90;4.80;;;20.80;82.30;;;;;;10390411;27;20107;-32
2023/10/22 22:23:22;;;;;;;8.02;4.72;;;20.70;82.20;;;;;;10399342;27;20861;-31
2023/10/22 22:28:25;;;;;;;7.72;4.40;;;20.70;82.10;;;;;;10386500;27;20056;-38
2023/10/22 22:33:27;;;;;;;6.85;3.97;;;20.70;81.90;;;;;;10395124;27;20117;-39
2023/10/22 22:38:29;;;;;;;7.93;4.32;;;20.70;82.00;;;;;;10388932;27;20101;-40
2023/10/22 22:43:32;;;;;;;8.52;5.05;;;20.70;82.00;;;;;;10390756;28;20045;-34
2023/10/22 22:48:34;;;;;;;7.07;3.80;;;20.60;82.00;;;;;;10389670;27;20037;-38
2023/10/22 22:53:36;;;;;;;9.00;4.32;;;20.60;82.00;;;;;;10394174;27;20126;-35
2023/10/22 22:58:39;;;;;;;10.60;3.65;;;20.70;81.80;;;;;;10386911;28;20080;-34
2023/10/22 23:03:41;;;;;;;8.25;3.67;;;20.60;81.70;;;;;;10392802;27;20462;-41
2023/10/22 23:08:43;;;;;;;10.07;4.55;;;20.60;81.60;;;;;;10392904;28;20110;-33
2023/10/22 23:13:46;;;;;;;11.00;3.90;;;20.60;81.60;;;;;;10392065;28;20497;-38
2023/10/22 23:18:47;;;;;;;5.88;4.03;;;20.60;81.50;;;;;;10394699;28;20126;-37
2023/10/22 23:23:49;;;;;;;6.50;3.63;;;20.60;81.60;;;;;;10403845;28;20152;-32
2023/10/22 23:28:53;;;;;;;;;;;20.60;81.40;;;;;;10391171;28;20482;-36
2023/10/22 23:33:54;;;;;;;11.82;3.45;;;20.50;81.50;;;;;;10389671;28;19929;-36
2023/10/22 23:38:56;;;;;;;6.93;3.45;;;20.50;81.40;;;;;;10407057;27;20198;-40
2023/10/22 23:43:59;;;;;;;7.50;3.72;;;20.50;81.40;;;;;;10412703;27;20145;-33
2023/10/22 23:49:01;;;;;;;5.40;3.53;;;20.50;81.20;;;;;;10392032;27;20060;-40
2023/10/22 23:54:03;;;;;;;5.32;3.03;;;20.50;81.20;;;;;;10397607;27;20065;-29
2023/10/22 23:59:06;;;;;;;7.03;3.15;;;20.50;81.20;;;;;;10404904;27;20569;-35
